Connor, Texas
Current Conditions -  °F | °C
As of 3:34 AM on Saturday 20 Dec 2014 (Local Time) from KUTS Reporting Station
Overcast Overcast  
Wind Chill: 47°   Ceiling: 400
Heat Index: 49°   Visibility: 7mi
Dew Point: 48°   Wind: 5mph
Humidity: 97%   Direction: 50°NE
Pressure: 30.16"   Gusts: NA
Location:  30.9578°N, 95.8924°W
Report Text: KUTS 200934Z AUTO 05004KT 7SM OVC004 09/09 A3016 RMK AO2 T00940089
Loading
Personal Weather Stations






























Interactive Weather Map New forecast layout! Learn more

10-Day Weather Forecast

Advertisements
Track Severe Weather on mobile